sensor_id;sensor_type;location;lat;lon;timestamp;P1;durP1;ratioP1;P2;durP2;ratioP2
21546;SDS011;41275;51.912;4.388;2022-12-07T00:03:22;6.72;;;2.60;;
21546;SDS011;41275;51.912;4.388;2022-12-07T00:08:43;10.43;;;3.50;;
21546;SDS011;41275;51.912;4.388;2022-12-07T00:14:06;8.57;;;2.00;;
21546;SDS011;41275;51.912;4.388;2022-12-07T00:19:30;6.72;;;1.45;;
21546;SDS011;41275;51.912;4.388;2022-12-07T00:24:51;5.05;;;1.85;;
21546;SDS011;41275;51.912;4.388;2022-12-07T00:30:13;7.82;;;2.17;;
21546;SDS011;41275;51.912;4.388;2022-12-07T00:35:34;9.00;;;2.10;;
21546;SDS011;41275;51.912;4.388;2022-12-07T00:40:56;6.30;;;2.30;;
21546;SDS011;41275;51.912;4.388;2022-12-07T00:52:34;6.93;;;1.75;;
21546;SDS011;41275;51.912;4.388;2022-12-07T00:57:55;7.57;;;1.80;;
21546;SDS011;41275;51.912;4.388;2022-12-07T01:03:16;6.95;;;1.88;;
21546;SDS011;41275;51.912;4.388;2022-12-07T01:08:38;5.97;;;2.15;;
21546;SDS011;41275;51.912;4.388;2022-12-07T01:14:00;5.25;;;1.92;;
21546;SDS011;41275;51.912;4.388;2022-12-07T01:19:21;6.22;;;1.70;;
21546;SDS011;41275;51.912;4.388;2022-12-07T01:24:42;7.00;;;2.00;;
21546;SDS011;41275;51.912;4.388;2022-12-07T01:30:04;6.00;;;2.00;;
21546;SDS011;41275;51.912;4.388;2022-12-07T01:35:46;6.57;;;2.13;;
21546;SDS011;41275;51.912;4.388;2022-12-07T01:41:07;5.95;;;2.00;;
21546;SDS011;41275;51.912;4.388;2022-12-07T01:46:29;5.68;;;1.90;;
21546;SDS011;41275;51.912;4.388;2022-12-07T01:51:51;9.75;;;2.40;;
21546;SDS011;41275;51.912;4.388;2022-12-07T01:57:15;10.88;;;1.88;;
21546;SDS011;41275;51.912;4.388;2022-12-07T02:02:41;6.85;;;1.27;;
21546;SDS011;41275;51.912;4.388;2022-12-07T02:08:07;8.32;;;1.40;;
21546;SDS011;41275;51.912;4.388;2022-12-07T02:13:31;4.70;;;1.25;;
21546;SDS011;41275;51.912;4.388;2022-12-07T02:19:06;10.60;;;1.33;;
21546;SDS011;41275;51.912;4.388;2022-12-07T02:25:04;8.30;;;2.50;;
21546;SDS011;41275;51.912;4.388;2022-12-07T02:30:35;4.73;;;1.20;;
21546;SDS011;41275;51.912;4.388;2022-12-07T02:36:06;6.70;;;1.50;;
21546;SDS011;41275;51.912;4.388;2022-12-07T02:41:36;8.50;;;1.27;;
21546;SDS011;41275;51.912;4.388;2022-12-07T02:47:04;7.93;;;1.27;;
21546;SDS011;41275;51.912;4.388;2022-12-07T02:52:30;9.27;;;1.38;;
21546;SDS011;41275;51.912;4.388;2022-12-07T02:57:54;3.17;;;1.00;;
21546;SDS011;41275;51.912;4.388;2022-12-07T03:03:32;7.60;;;1.30;;
21546;SDS011;41275;51.912;4.388;2022-12-07T03:14:59;7.43;;;1.53;;
21546;SDS011;41275;51.912;4.388;2022-12-07T03:20:40;6.67;;;1.20;;
21546;SDS011;41275;51.912;4.388;2022-12-07T03:26:05;6.43;;;1.67;;
21546;SDS011;41275;51.912;4.388;2022-12-07T03:31:31;5.45;;;1.35;;
21546;SDS011;41275;51.912;4.388;2022-12-07T03:37:02;5.70;;;1.50;;
21546;SDS011;41275;51.912;4.388;2022-12-07T03:42:28;6.95;;;1.70;;
21546;SDS011;41275;51.912;4.388;2022-12-07T03:53:25;5.50;;;1.10;;
21546;SDS011;41275;51.912;4.388;2022-12-07T03:58:58;8.40;;;1.30;;
21546;SDS011;41275;51.912;4.388;2022-12-07T04:04:19;11.23;;;1.30;;
21546;SDS011;41275;51.912;4.388;2022-12-07T04:09:40;6.32;;;1.00;;
21546;SDS011;41275;51.912;4.388;2022-12-07T04:15:02;8.05;;;1.40;;
21546;SDS011;41275;51.912;4.388;2022-12-07T04:20:23;6.13;;;1.13;;
21546;SDS011;41275;51.912;4.388;2022-12-07T04:25:47;5.87;;;0.90;;
21546;SDS011;41275;51.912;4.388;2022-12-07T04:31:09;7.37;;;0.97;;
21546;SDS011;41275;51.912;4.388;2022-12-07T04:36:30;7.03;;;1.10;;
21546;SDS011;41275;51.912;4.388;2022-12-07T04:41:53;8.70;;;1.27;;
21546;SDS011;41275;51.912;4.388;2022-12-07T04:47:14;7.78;;;1.80;;
21546;SDS011;41275;51.912;4.388;2022-12-07T04:52:35;10.85;;;1.33;;
21546;SDS011;41275;51.912;4.388;2022-12-07T04:57:57;6.93;;;1.30;;
21546;SDS011;41275;51.912;4.388;2022-12-07T05:03:18;5.53;;;1.27;;
21546;SDS011;41275;51.912;4.388;2022-12-07T05:08:39;5.85;;;1.50;;
21546;SDS011;41275;51.912;4.388;2022-12-07T05:14:01;5.35;;;1.25;;
21546;SDS011;41275;51.912;4.388;2022-12-07T05:19:23;11.48;;;3.95;;
21546;SDS011;41275;51.912;4.388;2022-12-07T05:24:45;6.32;;;1.60;;
21546;SDS011;41275;51.912;4.388;2022-12-07T05:30:06;6.22;;;1.40;;
21546;SDS011;41275;51.912;4.388;2022-12-07T05:35:28;7.03;;;1.45;;
21546;SDS011;41275;51.912;4.388;2022-12-07T05:40:49;8.43;;;1.80;;
21546;SDS011;41275;51.912;4.388;2022-12-07T05:46:10;7.70;;;1.83;;
21546;SDS011;41275;51.912;4.388;2022-12-07T05:51:39;8.48;;;1.60;;
21546;SDS011;41275;51.912;4.388;2022-12-07T05:57:11;8.07;;;1.90;;
21546;SDS011;41275;51.912;4.388;2022-12-07T06:02:32;6.10;;;1.88;;
21546;SDS011;41275;51.912;4.388;2022-12-07T06:07:53;10.55;;;1.90;;
21546;SDS011;41275;51.912;4.388;2022-12-07T06:13:15;9.43;;;2.70;;
21546;SDS011;41275;51.912;4.388;2022-12-07T06:18:41;10.30;;;2.17;;
21546;SDS011;41275;51.912;4.388;2022-12-07T06:24:02;11.85;;;1.67;;
21546;SDS011;41275;51.912;4.388;2022-12-07T06:29:23;10.13;;;1.33;;
21546;SDS011;41275;51.912;4.388;2022-12-07T06:34:45;6.97;;;1.80;;
21546;SDS011;41275;51.912;4.388;2022-12-07T06:40:08;7.50;;;1.50;;
21546;SDS011;41275;51.912;4.388;2022-12-07T06:45:29;11.93;;;1.50;;
21546;SDS011;41275;51.912;4.388;2022-12-07T06:50:51;5.83;;;1.17;;
21546;SDS011;41275;51.912;4.388;2022-12-07T06:56:12;8.73;;;1.40;;
21546;SDS011;41275;51.912;4.388;2022-12-07T07:01:33;9.32;;;1.90;;
21546;SDS011;41275;51.912;4.388;2022-12-07T07:06:56;6.20;;;1.33;;
21546;SDS011;41275;51.912;4.388;2022-12-07T07:12:17;5.97;;;0.98;;
21546;SDS011;41275;51.912;4.388;2022-12-07T07:17:38;12.63;;;1.30;;
21546;SDS011;41275;51.912;4.388;2022-12-07T07:22:59;8.55;;;2.60;;
21546;SDS011;41275;51.912;4.388;2022-12-07T07:28:20;7.47;;;1.40;;
21546;SDS011;41275;51.912;4.388;2022-12-07T07:33:42;7.00;;;1.20;;
21546;SDS011;41275;51.912;4.388;2022-12-07T07:39:03;7.05;;;1.02;;
21546;SDS011;41275;51.912;4.388;2022-12-07T07:44:24;6.35;;;1.00;;
21546;SDS011;41275;51.912;4.388;2022-12-07T07:49:45;8.53;;;1.70;;
21546;SDS011;41275;51.912;4.388;2022-12-07T07:55:07;7.10;;;1.73;;
21546;SDS011;41275;51.912;4.388;2022-12-07T08:00:31;8.90;;;1.75;;
21546;SDS011;41275;51.912;4.388;2022-12-07T08:05:52;8.17;;;1.50;;
21546;SDS011;41275;51.912;4.388;2022-12-07T08:11:13;9.80;;;1.90;;
21546;SDS011;41275;51.912;4.388;2022-12-07T08:16:34;7.17;;;1.27;;
21546;SDS011;41275;51.912;4.388;2022-12-07T08:21:56;5.60;;;1.30;;
21546;SDS011;41275;51.912;4.388;2022-12-07T08:27:17;7.93;;;2.08;;
21546;SDS011;41275;51.912;4.388;2022-12-07T08:32:38;8.20;;;1.92;;
21546;SDS011;41275;51.912;4.388;2022-12-07T08:38:00;7.07;;;1.50;;
21546;SDS011;41275;51.912;4.388;2022-12-07T08:43:22;5.77;;;1.53;;
21546;SDS011;41275;51.912;4.388;2022-12-07T08:48:45;10.00;;;1.97;;
21546;SDS011;41275;51.912;4.388;2022-12-07T08:54:11;9.32;;;1.90;;
21546;SDS011;41275;51.912;4.388;2022-12-07T08:59:35;6.15;;;1.10;;
21546;SDS011;41275;51.912;4.388;2022-12-07T09:04:57;11.90;;;1.67;;
21546;SDS011;41275;51.912;4.388;2022-12-07T09:10:19;3.37;;;0.80;;
21546;SDS011;41275;51.912;4.388;2022-12-07T09:15:40;6.57;;;1.37;;
21546;SDS011;41275;51.912;4.388;2022-12-07T09:21:01;5.87;;;1.23;;
21546;SDS011;41275;51.912;4.388;2022-12-07T09:26:22;4.55;;;1.60;;
21546;SDS011;41275;51.912;4.388;2022-12-07T09:31:43;11.07;;;3.13;;
21546;SDS011;41275;51.912;4.388;2022-12-07T09:37:05;5.90;;;1.10;;
21546;SDS011;41275;51.912;4.388;2022-12-07T09:42:37;3.47;;;1.10;;
21546;SDS011;41275;51.912;4.388;2022-12-07T09:48:02;5.38;;;1.23;;
21546;SDS011;41275;51.912;4.388;2022-12-07T09:58:58;7.30;;;1.27;;
21546;SDS011;41275;51.912;4.388;2022-12-07T10:04:22;6.80;;;1.50;;
21546;SDS011;41275;51.912;4.388;2022-12-07T10:09:47;6.07;;;1.40;;
21546;SDS011;41275;51.912;4.388;2022-12-07T10:15:09;4.40;;;1.10;;
21546;SDS011;41275;51.912;4.388;2022-12-07T10:20:30;3.85;;;1.00;;
21546;SDS011;41275;51.912;4.388;2022-12-07T10:25:51;5.57;;;1.30;;
21546;SDS011;41275;51.912;4.388;2022-12-07T10:31:16;10.73;;;1.42;;
21546;SDS011;41275;51.912;4.388;2022-12-07T10:36:39;4.35;;;0.98;;
21546;SDS011;41275;51.912;4.388;2022-12-07T10:42:01;9.38;;;1.48;;
21546;SDS011;41275;51.912;4.388;2022-12-07T10:47:29;8.43;;;1.10;;
21546;SDS011;41275;51.912;4.388;2022-12-07T10:58:59;4.22;;;0.77;;
21546;SDS011;41275;51.912;4.388;2022-12-07T11:04:49;5.13;;;0.93;;
21546;SDS011;41275;51.912;4.388;2022-12-07T11:10:25;4.18;;;0.70;;
21546;SDS011;41275;51.912;4.388;2022-12-07T11:21:48;4.55;;;0.80;;
21546;SDS011;41275;51.912;4.388;2022-12-07T11:33:01;6.10;;;0.60;;
21546;SDS011;41275;51.912;4.388;2022-12-07T11:38:44;4.20;;;0.68;;
21546;SDS011;41275;51.912;4.388;2022-12-07T11:44:18;3.47;;;0.57;;
21546;SDS011;41275;51.912;4.388;2022-12-07T11:55:40;2.10;;;0.53;;
21546;SDS011;41275;51.912;4.388;2022-12-07T12:01:22;3.15;;;0.60;;
21546;SDS011;41275;51.912;4.388;2022-12-07T12:06:51;3.45;;;0.57;;
21546;SDS011;41275;51.912;4.388;2022-12-07T12:12:20;6.13;;;1.13;;
21546;SDS011;41275;51.912;4.388;2022-12-07T12:24:09;3.35;;;0.60;;
21546;SDS011;41275;51.912;4.388;2022-12-07T12:29:40;5.85;;;0.77;;
21546;SDS011;41275;51.912;4.388;2022-12-07T12:35:21;3.67;;;0.68;;
21546;SDS011;41275;51.912;4.388;2022-12-07T12:40:46;3.87;;;0.63;;
21546;SDS011;41275;51.912;4.388;2022-12-07T12:51:53;1.85;;;0.40;;
21546;SDS011;41275;51.912;4.388;2022-12-07T13:08:15;3.95;;;0.80;;
21546;SDS011;41275;51.912;4.388;2022-12-07T13:13:42;5.78;;;1.35;;
21546;SDS011;41275;51.912;4.388;2022-12-07T13:19:26;3.95;;;0.77;;
21546;SDS011;41275;51.912;4.388;2022-12-07T13:30:42;4.68;;;0.80;;
21546;SDS011;41275;51.912;4.388;2022-12-07T13:36:24;4.85;;;1.52;;
21546;SDS011;41275;51.912;4.388;2022-12-07T13:41:57;3.92;;;0.60;;
21546;SDS011;41275;51.912;4.388;2022-12-07T13:47:35;4.82;;;0.80;;
21546;SDS011;41275;51.912;4.388;2022-12-07T13:53:07;3.10;;;0.73;;
21546;SDS011;41275;51.912;4.388;2022-12-07T13:58:34;4.53;;;0.68;;
21546;SDS011;41275;51.912;4.388;2022-12-07T14:03:55;3.10;;;0.68;;
21546;SDS011;41275;51.912;4.388;2022-12-07T14:09:36;4.78;;;0.70;;
21546;SDS011;41275;51.912;4.388;2022-12-07T14:14:58;3.67;;;0.55;;
21546;SDS011;41275;51.912;4.388;2022-12-07T14:20:28;5.40;;;0.83;;
21546;SDS011;41275;51.912;4.388;2022-12-07T14:25:54;6.28;;;0.70;;
21546;SDS011;41275;51.912;4.388;2022-12-07T14:31:32;3.83;;;0.70;;
21546;SDS011;41275;51.912;4.388;2022-12-07T14:36:53;5.80;;;0.90;;
21546;SDS011;41275;51.912;4.388;2022-12-07T14:42:14;3.28;;;0.60;;
21546;SDS011;41275;51.912;4.388;2022-12-07T14:47:35;4.60;;;1.33;;
21546;SDS011;41275;51.912;4.388;2022-12-07T14:53:00;3.65;;;1.08;;
21546;SDS011;41275;51.912;4.388;2022-12-07T14:58:27;4.50;;;1.00;;
21546;SDS011;41275;51.912;4.388;2022-12-07T15:03:48;4.30;;;1.08;;
21546;SDS011;41275;51.912;4.388;2022-12-07T15:09:10;4.97;;;1.20;;
21546;SDS011;41275;51.912;4.388;2022-12-07T15:14:32;7.03;;;1.55;;
21546;SDS011;41275;51.912;4.388;2022-12-07T15:19:53;5.82;;;1.40;;
21546;SDS011;41275;51.912;4.388;2022-12-07T15:25:14;4.35;;;1.17;;
21546;SDS011;41275;51.912;4.388;2022-12-07T15:30:39;5.20;;;1.23;;
21546;SDS011;41275;51.912;4.388;2022-12-07T15:36:01;6.43;;;1.30;;
21546;SDS011;41275;51.912;4.388;2022-12-07T15:41:22;4.97;;;1.60;;
21546;SDS011;41275;51.912;4.388;2022-12-07T15:46:44;4.93;;;1.70;;
21546;SDS011;41275;51.912;4.388;2022-12-07T15:52:05;9.23;;;1.50;;
21546;SDS011;41275;51.912;4.388;2022-12-07T15:57:26;5.20;;;1.53;;
21546;SDS011;41275;51.912;4.388;2022-12-07T16:02:48;8.17;;;1.50;;
21546;SDS011;41275;51.912;4.388;2022-12-07T16:08:09;5.43;;;1.20;;
21546;SDS011;41275;51.912;4.388;2022-12-07T16:13:30;5.32;;;1.02;;
21546;SDS011;41275;51.912;4.388;2022-12-07T16:18:51;3.25;;;1.00;;
21546;SDS011;41275;51.912;4.388;2022-12-07T16:24:12;2.97;;;0.60;;
21546;SDS011;41275;51.912;4.388;2022-12-07T16:29:35;4.88;;;0.90;;
21546;SDS011;41275;51.912;4.388;2022-12-07T16:34:57;3.40;;;0.80;;
21546;SDS011;41275;51.912;4.388;2022-12-07T16:40:18;5.32;;;1.60;;
21546;SDS011;41275;51.912;4.388;2022-12-07T16:45:39;7.13;;;0.90;;
21546;SDS011;41275;51.912;4.388;2022-12-07T16:51:02;4.37;;;1.10;;
21546;SDS011;41275;51.912;4.388;2022-12-07T16:56:29;19.17;;;5.35;;
21546;SDS011;41275;51.912;4.388;2022-12-07T17:01:50;29.97;;;10.37;;
21546;SDS011;41275;51.912;4.388;2022-12-07T17:07:12;22.40;;;7.90;;
21546;SDS011;41275;51.912;4.388;2022-12-07T17:12:33;10.60;;;4.73;;
21546;SDS011;41275;51.912;4.388;2022-12-07T17:17:58;10.27;;;3.97;;
21546;SDS011;41275;51.912;4.388;2022-12-07T17:23:19;8.55;;;2.92;;
21546;SDS011;41275;51.912;4.388;2022-12-07T17:28:40;8.88;;;2.58;;
21546;SDS011;41275;51.912;4.388;2022-12-07T17:34:02;8.20;;;2.43;;
21546;SDS011;41275;51.912;4.388;2022-12-07T17:39:24;6.67;;;1.53;;
21546;SDS011;41275;51.912;4.388;2022-12-07T17:44:45;5.60;;;1.40;;
21546;SDS011;41275;51.912;4.388;2022-12-07T17:50:06;8.13;;;1.92;;
21546;SDS011;41275;51.912;4.388;2022-12-07T17:55:28;4.60;;;1.20;;
21546;SDS011;41275;51.912;4.388;2022-12-07T18:00:49;4.25;;;0.60;;
21546;SDS011;41275;51.912;4.388;2022-12-07T18:06:11;5.78;;;0.52;;
21546;SDS011;41275;51.912;4.388;2022-12-07T18:11:32;5.20;;;0.88;;
21546;SDS011;41275;51.912;4.388;2022-12-07T18:16:54;4.78;;;0.80;;
21546;SDS011;41275;51.912;4.388;2022-12-07T18:22:15;3.83;;;0.70;;
21546;SDS011;41275;51.912;4.388;2022-12-07T18:27:36;3.30;;;1.23;;
21546;SDS011;41275;51.912;4.388;2022-12-07T18:32:57;3.30;;;1.10;;
21546;SDS011;41275;51.912;4.388;2022-12-07T18:38:18;2.00;;;0.80;;
21546;SDS011;41275;51.912;4.388;2022-12-07T18:43:40;7.63;;;2.78;;
21546;SDS011;41275;51.912;4.388;2022-12-07T18:49:02;8.27;;;3.28;;
21546;SDS011;41275;51.912;4.388;2022-12-07T18:54:26;6.07;;;2.50;;
21546;SDS011;41275;51.912;4.388;2022-12-07T18:59:47;5.78;;;2.33;;
21546;SDS011;41275;51.912;4.388;2022-12-07T19:05:09;3.70;;;1.33;;
21546;SDS011;41275;51.912;4.388;2022-12-07T19:10:30;4.53;;;1.38;;
21546;SDS011;41275;51.912;4.388;2022-12-07T19:15:51;2.57;;;0.93;;
21546;SDS011;41275;51.912;4.388;2022-12-07T19:21:13;4.47;;;1.20;;
21546;SDS011;41275;51.912;4.388;2022-12-07T19:26:34;6.68;;;3.35;;
21546;SDS011;41275;51.912;4.388;2022-12-07T19:31:59;16.10;;;9.52;;
21546;SDS011;41275;51.912;4.388;2022-12-07T19:37:21;7.85;;;2.63;;
21546;SDS011;41275;51.912;4.388;2022-12-07T19:42:42;7.28;;;3.10;;
21546;SDS011;41275;51.912;4.388;2022-12-07T19:48:03;5.28;;;1.42;;
21546;SDS011;41275;51.912;4.388;2022-12-07T19:53:25;2.95;;;0.93;;
21546;SDS011;41275;51.912;4.388;2022-12-07T19:58:46;3.67;;;0.87;;
21546;SDS011;41275;51.912;4.388;2022-12-07T20:04:16;4.68;;;1.38;;
21546;SDS011;41275;51.912;4.388;2022-12-07T20:09:42;8.57;;;2.95;;
21546;SDS011;41275;51.912;4.388;2022-12-07T20:15:04;3.93;;;1.40;;
21546;SDS011;41275;51.912;4.388;2022-12-07T20:20:28;7.75;;;1.25;;
21546;SDS011;41275;51.912;4.388;2022-12-07T20:25:50;4.37;;;1.37;;
21546;SDS011;41275;51.912;4.388;2022-12-07T20:31:13;11.50;;;5.40;;
21546;SDS011;41275;51.912;4.388;2022-12-07T20:36:35;5.93;;;1.85;;
21546;SDS011;41275;51.912;4.388;2022-12-07T20:41:57;8.65;;;1.73;;
21546;SDS011;41275;51.912;4.388;2022-12-07T20:47:37;5.22;;;1.50;;
21546;SDS011;41275;51.912;4.388;2022-12-07T20:52:58;6.85;;;1.83;;
21546;SDS011;41275;51.912;4.388;2022-12-07T20:58:19;5.13;;;1.50;;
21546;SDS011;41275;51.912;4.388;2022-12-07T21:03:40;4.43;;;1.17;;
21546;SDS011;41275;51.912;4.388;2022-12-07T21:09:04;4.97;;;0.77;;
21546;SDS011;41275;51.912;4.388;2022-12-07T21:14:25;2.17;;;0.80;;
21546;SDS011;41275;51.912;4.388;2022-12-07T21:19:47;2.40;;;0.68;;
21546;SDS011;41275;51.912;4.388;2022-12-07T21:25:08;1.83;;;0.47;;
21546;SDS011;41275;51.912;4.388;2022-12-07T21:30:29;2.17;;;0.63;;
21546;SDS011;41275;51.912;4.388;2022-12-07T21:35:51;2.50;;;0.50;;
21546;SDS011;41275;51.912;4.388;2022-12-07T21:41:13;2.70;;;0.50;;
21546;SDS011;41275;51.912;4.388;2022-12-07T21:46:43;1.30;;;0.53;;
21546;SDS011;41275;51.912;4.388;2022-12-07T21:53:08;3.85;;;1.00;;
21546;SDS011;41275;51.912;4.388;2022-12-07T21:58:30;2.10;;;0.77;;
21546;SDS011;41275;51.912;4.388;2022-12-07T22:03:52;2.67;;;1.02;;
21546;SDS011;41275;51.912;4.388;2022-12-07T22:09:14;3.90;;;1.45;;
21546;SDS011;41275;51.912;4.388;2022-12-07T22:14:35;2.28;;;0.63;;
21546;SDS011;41275;51.912;4.388;2022-12-07T22:20:15;2.75;;;0.90;;
21546;SDS011;41275;51.912;4.388;2022-12-07T22:25:38;7.63;;;1.43;;
21546;SDS011;41275;51.912;4.388;2022-12-07T22:31:06;4.07;;;0.90;;
21546;SDS011;41275;51.912;4.388;2022-12-07T22:36:29;9.98;;;1.50;;
21546;SDS011;41275;51.912;4.388;2022-12-07T22:41:50;9.52;;;1.40;;
21546;SDS011;41275;51.912;4.388;2022-12-07T22:47:19;5.53;;;1.10;;
21546;SDS011;41275;51.912;4.388;2022-12-07T22:52:40;7.32;;;1.10;;
21546;SDS011;41275;51.912;4.388;2022-12-07T22:58:03;3.95;;;0.75;;
21546;SDS011;41275;51.912;4.388;2022-12-07T23:03:25;2.92;;;0.65;;
21546;SDS011;41275;51.912;4.388;2022-12-07T23:08:46;3.92;;;1.15;;
21546;SDS011;41275;51.912;4.388;2022-12-07T23:14:09;2.47;;;1.10;;
21546;SDS011;41275;51.912;4.388;2022-12-07T23:19:32;2.90;;;1.60;;
21546;SDS011;41275;51.912;4.388;2022-12-07T23:24:53;4.20;;;1.10;;
21546;SDS011;41275;51.912;4.388;2022-12-07T23:30:15;2.22;;;0.90;;
21546;SDS011;41275;51.912;4.388;2022-12-07T23:35:36;3.75;;;1.23;;
21546;SDS011;41275;51.912;4.388;2022-12-07T23:40:57;2.73;;;1.10;;
21546;SDS011;41275;51.912;4.388;2022-12-07T23:46:20;2.63;;;1.20;;
21546;SDS011;41275;51.912;4.388;2022-12-07T23:51:43;3.17;;;1.13;;
21546;SDS011;41275;51.912;4.388;2022-12-07T23:57:04;4.68;;;1.15;;
